Time,TemperatureF,DewpointF,PressureIn,WindDirection,WindDirectionDegrees,WindSpeedMPH,WindSpeedGustMPH,Humidity,HourlyPrecipIn,Conditions,Clouds,dailyrainin,SoftwareType,DateUTC
2013-04-05 00:03:00,33.0,32.0,30.03,ENE,63,0.0,3.0,96,0.03,,,0.05,,2013-04-05 04:03:00,
2013-04-05 00:13:00,33.0,32.0,30.03,ENE,63,0.0,3.0,96,0.03,,,0.05,,2013-04-05 04:13:00,
2013-04-05 00:23:00,33.0,32.0,30.03,East,86,0.0,3.0,96,0.03,,,0.06,,2013-04-05 04:23:00,
2013-04-05 00:33:00,33.0,32.0,30.04,East,86,0.0,2.0,96,0.03,,,0.07,,2013-04-05 04:33:00,
2013-04-05 00:42:00,33.0,32.0,30.04,East,86,0.0,2.0,96,0.03,,,0.07,,2013-04-05 04:42:00,
2013-04-05 00:52:00,33.0,32.0,30.03,East,86,0.0,1.0,96,0.04,,,0.08,,2013-04-05 04:52:00,
2013-04-05 01:02:00,33.0,32.0,30.02,East,86,0.0,1.0,96,0.04,,,0.09,,2013-04-05 05:02:00,
2013-04-05 01:13:00,33.0,32.0,30.02,East,86,0.0,1.0,96,0.04,,,0.09,,2013-04-05 05:13:00,
2013-04-05 01:22:00,33.0,32.0,30.01,East,86,0.0,0.0,96,0.04,,,0.10,,2013-04-05 05:22:00,
2013-04-05 01:32:00,33.0,32.0,30.01,East,86,0.0,0.0,96,0.05,,,0.12,,2013-04-05 05:32:00,
2013-04-05 01:42:00,33.0,32.0,30.01,East,86,0.0,0.0,96,0.05,,,0.12,,2013-04-05 05:42:00,
2013-04-05 01:53:00,33.0,32.0,30.01,East,86,0.0,0.0,96,0.04,,,0.12,,2013-04-05 05:53:00,
2013-04-05 02:02:00,33.0,32.0,30.01,East,86,0.0,2.0,96,0.04,,,0.13,,2013-04-05 06:02:00,
2013-04-05 02:12:00,33.0,32.0,30.01,East,86,0.0,2.0,96,0.04,,,0.13,,2013-04-05 06:12:00,
2013-04-05 02:22:00,33.0,32.0,30.01,East,86,0.0,2.0,96,0.03,,,0.14,,2013-04-05 06:22:00,
2013-04-05 02:32:00,33.0,32.0,30.01,NW,315,0.0,3.0,96,0.02,,,0.14,,2013-04-05 06:32:00,
2013-04-05 02:42:00,33.0,32.0,30.01,NW,315,0.0,3.0,96,0.02,,,0.14,,2013-04-05 06:42:00,
2013-04-05 02:52:00,33.0,32.0,30.01,NW,315,0.0,3.0,96,0.02,,,0.14,,2013-04-05 06:52:00,
2013-04-05 03:03:00,32.0,31.0,29.99,WNW,288,1.0,2.0,96,0.03,,,0.16,,2013-04-05 07:03:00,
2013-04-05 03:12:00,32.0,31.0,29.99,WNW,288,1.0,2.0,96,0.03,,,0.16,,2013-04-05 07:12:00,
2013-04-05 03:22:00,33.0,32.0,29.98,WNW,288,0.0,0.0,96,0.02,,,0.16,,2013-04-05 07:22:00,
2013-04-05 03:32:00,33.0,32.0,29.98,WNW,288,0.0,2.0,96,0.02,,,0.17,,2013-04-05 07:32:00,
2013-04-05 03:42:00,33.0,32.0,29.98,WNW,288,0.0,2.0,96,0.02,,,0.17,,2013-04-05 07:42:00,
2013-04-05 03:53:00,33.0,32.0,29.98,WNW,288,0.0,2.0,96,0.02,,,0.17,,2013-04-05 07:53:00,
2013-04-05 04:03:00,33.0,32.0,29.98,WNW,288,1.0,4.0,96,0.02,,,0.18,,2013-04-05 08:03:00,
2013-04-05 04:13:00,33.0,32.0,29.98,WNW,288,1.0,4.0,96,0.02,,,0.18,,2013-04-05 08:13:00,
2013-04-05 04:22:00,33.0,32.0,29.99,West,265,0.0,3.0,96,0.02,,,0.18,,2013-04-05 08:22:00,
2013-04-05 04:32:00,33.0,32.0,29.99,West,266,2.0,4.0,96,0.01,,,0.18,,2013-04-05 08:32:00,
2013-04-05 04:43:00,33.0,32.0,29.99,West,266,2.0,4.0,96,0.01,,,0.18,,2013-04-05 08:43:00,
2013-04-05 04:52:00,33.0,32.0,29.99,West,272,1.0,4.0,96,0.02,,,0.19,,2013-04-05 08:52:00,
2013-04-05 05:02:00,33.0,32.0,30.00,West,273,0.0,4.0,96,0.01,,,0.19,,2013-04-05 09:02:00,
2013-04-05 05:12:00,33.0,32.0,30.00,West,273,0.0,4.0,96,0.01,,,0.19,,2013-04-05 09:12:00,
2013-04-05 05:22:00,33.0,32.0,30.00,West,276,2.0,4.0,97,0.01,,,0.19,,2013-04-05 09:22:00,
2013-04-05 05:33:00,33.0,32.0,30.01,West,273,3.0,6.0,96,0.02,,,0.20,,2013-04-05 09:33:00,
2013-04-05 05:43:00,33.0,32.0,30.01,West,273,3.0,6.0,96,0.02,,,0.20,,2013-04-05 09:43:00,
2013-04-05 05:53:00,33.0,32.0,30.01,WNW,297,0.0,4.0,97,0.01,,,0.20,,2013-04-05 09:53:00,
2013-04-05 06:03:00,33.0,32.0,30.01,WNW,296,0.0,3.0,97,0.02,,,0.21,,2013-04-05 10:03:00,
2013-04-05 06:13:00,33.0,32.0,30.01,WNW,296,0.0,3.0,97,0.02,,,0.21,,2013-04-05 10:13:00,
2013-04-05 06:23:00,33.0,32.0,30.01,WNW,296,0.0,2.0,97,0.02,,,0.21,,2013-04-05 10:23:00,
2013-04-05 06:33:00,33.0,32.0,30.00,WNW,296,0.0,0.0,97,0.02,,,0.22,,2013-04-05 10:33:00,
2013-04-05 06:43:00,33.0,32.0,30.00,WNW,296,0.0,0.0,97,0.02,,,0.22,,2013-04-05 10:43:00,
2013-04-05 06:53:00,33.0,32.0,30.00,WNW,296,0.0,1.0,97,0.02,,,0.22,,2013-04-05 10:53:00,
2013-04-05 07:03:00,33.0,32.0,30.00,WNW,296,0.0,1.0,97,0.02,,,0.23,,2013-04-05 11:03:00,
2013-04-05 07:13:00,33.0,32.0,30.00,WNW,296,0.0,1.0,97,0.02,,,0.23,,2013-04-05 11:13:00,
2013-04-05 07:22:00,33.0,32.0,30.00,WNW,294,0.0,3.0,97,0.02,,,0.23,,2013-04-05 11:22:00,
2013-04-05 07:33:00,33.0,32.0,30.00,WNW,294,0.0,3.0,97,0.01,,,0.23,,2013-04-05 11:33:00,
2013-04-05 07:42:00,33.0,32.0,30.00,WNW,294,0.0,3.0,97,0.01,,,0.23,,2013-04-05 11:42:00,
2013-04-05 07:52:00,34.0,33.0,30.00,WNW,294,0.0,3.0,97,0.01,,,0.23,,2013-04-05 11:52:00,
2013-04-05 08:02:00,34.0,33.0,30.00,WNW,294,0.0,0.0,97,0.01,,,0.24,,2013-04-05 12:02:00,
2013-04-05 08:12:00,34.0,33.0,30.00,WNW,294,0.0,0.0,97,0.01,,,0.24,,2013-04-05 12:12:00,
2013-04-05 08:22:00,34.0,33.0,30.00,WNW,294,0.0,1.0,97,0.01,,,0.24,,2013-04-05 12:22:00,
2013-04-05 08:32:00,35.0,34.0,30.00,WNW,294,0.0,2.0,97,0.02,,,0.25,,2013-04-05 12:32:00,
2013-04-05 08:42:00,35.0,34.0,30.00,WNW,294,0.0,2.0,97,0.02,,,0.25,,2013-04-05 12:42:00,
2013-04-05 08:52:00,35.0,34.0,30.01,WNW,294,0.0,2.0,97,0.02,,,0.25,,2013-04-05 12:52:00,
2013-04-05 09:02:00,36.0,35.0,30.01,WNW,294,0.0,1.0,97,0.02,,,0.26,,2013-04-05 13:02:00,
2013-04-05 09:12:00,36.0,35.0,30.01,WNW,294,0.0,1.0,97,0.02,,,0.26,,2013-04-05 13:12:00,
2013-04-05 09:23:00,37.0,36.0,30.03,WNW,290,0.0,3.0,97,0.03,,,0.27,,2013-04-05 13:23:00,
2013-04-05 09:32:00,38.0,37.0,30.04,West,275,0.0,4.0,97,0.03,,,0.28,,2013-04-05 13:32:00,
2013-04-05 09:42:00,38.0,37.0,30.04,West,275,0.0,4.0,97,0.03,,,0.28,,2013-04-05 13:42:00,
2013-04-05 09:52:00,39.0,38.0,30.04,NW,317,2.0,4.0,97,0.05,,,0.30,,2013-04-05 13:52:00,
2013-04-05 10:03:00,40.0,39.0,30.04,WNW,296,0.0,2.0,97,0.05,,,0.31,,2013-04-05 14:03:00,
2013-04-05 10:12:00,40.0,39.0,30.04,WNW,296,0.0,2.0,97,0.05,,,0.31,,2013-04-05 14:12:00,
2013-04-05 10:23:00,41.0,40.0,30.04,West,274,3.0,7.0,95,0.05,,,0.32,,2013-04-05 14:23:00,
2013-04-05 10:37:00,43.0,40.0,30.04,West,263,3.0,5.0,90,0.06,,,0.34,,2013-04-05 14:37:00,
2013-04-05 10:43:00,43.0,40.0,30.04,West,263,3.0,5.0,90,0.06,,,0.34,,2013-04-05 14:43:00,
2013-04-05 10:54:00,43.0,38.0,30.04,West,281,5.0,8.0,82,0.05,,,0.35,,2013-04-05 14:54:00,
2013-04-05 11:02:00,45.0,39.0,30.04,WSW,254,4.0,10.0,79,0.05,,,0.36,,2013-04-05 15:02:00,
2013-04-05 11:13:00,45.0,39.0,30.04,WSW,254,4.0,10.0,79,0.05,,,0.36,,2013-04-05 15:13:00,
2013-04-05 11:23:00,46.0,39.0,30.04,WNW,294,4.0,9.0,77,0.06,,,0.38,,2013-04-05 15:23:00,
2013-04-05 11:33:00,46.0,39.0,30.03,WNW,286,5.0,9.0,75,0.05,,,0.39,,2013-04-05 15:33:00,
2013-04-05 11:43:00,46.0,39.0,30.03,WNW,286,5.0,9.0,75,0.05,,,0.39,,2013-04-05 15:43:00,
2013-04-05 11:54:00,46.0,38.0,30.04,WNW,293,5.0,9.0,73,0.06,,,0.41,,2013-04-05 15:54:00,
2013-04-05 12:03:00,47.0,38.0,30.04,NNW,332,3.0,10.0,70,0.07,,,0.43,,2013-04-05 16:03:00,
2013-04-05 12:14:00,47.0,38.0,30.04,NNW,332,3.0,10.0,70,0.07,,,0.43,,2013-04-05 16:14:00,
2013-04-05 12:23:00,47.0,36.0,30.04,WNW,286,3.0,8.0,66,0.07,,,0.45,,2013-04-05 16:23:00,
2013-04-05 12:33:00,48.0,36.0,30.03,West,279,2.0,12.0,64,0.08,,,0.47,,2013-04-05 16:33:00,
2013-04-05 12:42:00,48.0,36.0,30.03,West,279,2.0,12.0,64,0.08,,,0.47,,2013-04-05 16:42:00,
2013-04-05 12:53:00,48.0,36.0,30.03,West,261,3.0,11.0,62,0.08,,,0.49,,2013-04-05 16:53:00,
2013-04-05 13:03:00,48.0,35.0,30.03,West,267,5.0,9.0,61,0.08,,,0.51,,2013-04-05 17:03:00,
2013-04-05 13:13:00,48.0,35.0,30.03,West,267,5.0,9.0,61,0.08,,,0.51,,2013-04-05 17:13:00,
2013-04-05 13:23:00,48.0,34.0,30.03,WSW,255,7.0,13.0,59,0.08,,,0.53,,2013-04-05 17:23:00,
2013-04-05 13:33:00,49.0,35.0,30.02,NW,309,7.0,11.0,59,0.07,,,0.54,,2013-04-05 17:33:00,
2013-04-05 13:45:00,49.0,35.0,30.02,NW,309,7.0,11.0,59,0.07,,,0.54,,2013-04-05 17:45:00,
2013-04-05 13:53:00,49.0,35.0,30.02,NW,306,5.0,9.0,59,0.07,,,0.56,,2013-04-05 17:53:00,
2013-04-05 14:02:00,49.0,35.0,30.01,NW,320,4.0,11.0,58,0.06,,,0.56,,2013-04-05 18:02:00,
2013-04-05 14:13:00,49.0,35.0,30.01,NW,320,4.0,11.0,58,0.06,,,0.56,,2013-04-05 18:13:00,
2013-04-05 14:23:00,50.0,34.0,30.01,NNE,18,4.0,9.0,53,0.05,,,0.57,,2013-04-05 18:23:00,
2013-04-05 14:33:00,52.0,34.0,30.00,WNW,299,6.0,14.0,50,0.05,,,0.59,,2013-04-05 18:33:00,
2013-04-05 14:43:00,52.0,34.0,30.00,WNW,299,6.0,14.0,50,0.05,,,0.59,,2013-04-05 18:43:00,
2013-04-05 14:53:00,52.0,33.0,29.99,NW,322,7.0,14.0,49,0.04,,,0.60,,2013-04-05 18:53:00,
2013-04-05 15:02:00,52.0,32.0,29.99,NE,55,5.0,11.0,47,0.03,,,0.60,,2013-04-05 19:02:00,
2013-04-05 15:13:00,52.0,32.0,29.99,NE,55,5.0,11.0,47,0.03,,,0.60,,2013-04-05 19:13:00,
2013-04-05 15:23:00,53.0,33.0,29.98,WSW,257,5.0,12.0,46,0.03,,,0.61,,2013-04-05 19:23:00,
2013-04-05 15:33:00,53.0,33.0,29.98,WSW,257,5.0,12.0,46,0.03,,,0.61,,2013-04-05 19:33:00,
2013-04-05 15:42:00,53.0,33.0,29.98,WSW,257,5.0,12.0,46,0.03,,,0.61,,2013-04-05 19:42:00,
2013-04-05 15:53:00,53.0,33.0,29.98,WSW,257,5.0,12.0,46,0.03,,,0.61,,2013-04-05 19:53:00,
2013-04-05 16:22:00,55.0,31.0,29.97,North,5,8.0,13.0,39,0.02,,,0.63,,2013-04-05 20:22:00,
2013-04-05 16:33:00,55.0,31.0,29.97,North,5,8.0,13.0,39,0.02,,,0.63,,2013-04-05 20:33:00,
2013-04-05 16:42:00,55.0,31.0,29.97,North,5,8.0,13.0,39,0.02,,,0.63,,2013-04-05 20:42:00,
2013-04-05 17:03:00,56.0,30.0,29.97,NE,34,6.0,13.0,37,0.01,,,0.64,,2013-04-05 21:03:00,
2013-04-05 17:13:00,56.0,30.0,29.97,NE,34,6.0,13.0,37,0.01,,,0.64,,2013-04-05 21:13:00,
2013-04-05 17:24:00,56.0,30.0,29.97,North,355,7.0,13.0,37,0.02,,,0.65,,2013-04-05 21:24:00,
2013-04-05 17:34:00,57.0,31.0,29.97,NE,49,7.0,15.0,37,0.01,,,0.65,,2013-04-05 21:34:00,
2013-04-05 17:43:00,57.0,31.0,29.97,NE,49,7.0,15.0,37,0.01,,,0.65,,2013-04-05 21:43:00,
2013-04-05 17:55:00,56.0,30.0,29.97,NW,322,5.0,14.0,37,0.01,,,0.65,,2013-04-05 21:55:00,
2013-04-05 18:03:00,57.0,31.0,29.98,North,5,6.0,13.0,37,0.01,,,0.65,,2013-04-05 22:03:00,
2013-04-05 18:13:00,57.0,31.0,29.98,North,5,6.0,13.0,37,0.01,,,0.65,,2013-04-05 22:13:00,
2013-04-05 18:23:00,56.0,30.0,29.98,NNW,327,5.0,14.0,37,0.01,,,0.66,,2013-04-05 22:23:00,
2013-04-05 18:33:00,56.0,29.0,29.98,NW,325,5.0,13.0,36,0.01,,,0.66,,2013-04-05 22:33:00,
2013-04-05 18:43:00,56.0,29.0,29.98,NW,325,5.0,13.0,36,0.01,,,0.66,,2013-04-05 22:43:00,
2013-04-05 18:53:00,56.0,29.0,29.99,NNW,344,4.0,10.0,36,0.01,,,0.66,,2013-04-05 22:53:00,
2013-04-05 19:03:00,56.0,29.0,29.99,WNW,300,5.0,9.0,36,0.01,,,0.66,,2013-04-05 23:03:00,
2013-04-05 19:13:00,56.0,29.0,29.99,WNW,300,5.0,9.0,36,0.01,,,0.66,,2013-04-05 23:13:00,
2013-04-05 19:23:00,56.0,30.0,29.99,North,5,6.0,10.0,37,0.01,,,0.67,,2013-04-05 23:23:00,
2013-04-05 19:33:00,55.0,29.0,30.00,North,9,5.0,11.0,36,0.01,,,0.67,,2013-04-05 23:33:00,
2013-04-05 19:42:00,55.0,29.0,30.00,North,9,5.0,11.0,36,0.01,,,0.67,,2013-04-05 23:42:00,
2013-04-05 19:53:00,55.0,29.0,30.00,NW,314,2.0,8.0,37,0.01,,,0.67,,2013-04-05 23:53:00,
2013-04-05 20:02:00,55.0,29.0,30.00,NW,314,2.0,8.0,37,0.01,,,0.67,,2013-04-06 00:02:00,
2013-04-05 20:13:00,55.0,29.0,30.00,NW,314,2.0,8.0,37,0.01,,,0.67,,2013-04-06 00:13:00,
2013-04-05 20:23:00,53.0,29.0,30.01,NW,317,0.0,8.0,40,0.01,,,0.68,,2013-04-06 00:23:00,
2013-04-05 20:33:00,53.0,29.0,30.02,NW,309,2.0,8.0,39,0.01,,,0.68,,2013-04-06 00:33:00,
2013-04-05 20:43:00,53.0,29.0,30.02,NW,309,2.0,8.0,39,0.01,,,0.68,,2013-04-06 00:43:00,
2013-04-05 20:52:00,52.0,28.0,30.03,NNW,347,3.0,7.0,39,0.01,,,0.68,,2013-04-06 00:52:00,
2013-04-05 21:02:00,52.0,28.0,30.03,WNW,295,2.0,8.0,40,0.01,,,0.68,,2013-04-06 01:02:00,
2013-04-05 21:13:00,52.0,28.0,30.03,WNW,295,2.0,8.0,40,0.01,,,0.68,,2013-04-06 01:13:00,
2013-04-05 21:23:00,52.0,28.0,30.04,North,9,1.0,5.0,39,0.00,,,0.68,,2013-04-06 01:23:00,
2013-04-05 21:33:00,51.0,28.0,30.05,NNW,339,0.0,4.0,40,0.00,,,0.68,,2013-04-06 01:33:00,
2013-04-05 21:43:00,51.0,28.0,30.05,NNW,339,0.0,4.0,40,0.00,,,0.68,,2013-04-06 01:43:00,
2013-04-05 21:53:00,51.0,28.0,30.05,WNW,303,0.0,3.0,41,0.01,,,0.69,,2013-04-06 01:53:00,
2013-04-05 22:02:00,50.0,28.0,30.06,NW,319,0.0,3.0,42,0.01,,,0.69,,2013-04-06 02:02:00,
2013-04-05 22:12:00,50.0,28.0,30.06,NW,319,0.0,3.0,42,0.01,,,0.69,,2013-04-06 02:12:00,
2013-04-05 22:23:00,50.0,29.0,30.06,NW,319,0.0,1.0,44,0.01,,,0.68,,2013-04-06 02:23:00,
2013-04-05 22:32:00,49.0,29.0,30.06,NW,319,0.0,2.0,46,0.01,,,0.68,,2013-04-06 02:32:00,
2013-04-05 22:42:00,49.0,29.0,30.06,NW,319,0.0,2.0,46,0.01,,,0.68,,2013-04-06 02:42:00,
2013-04-05 22:53:00,47.0,30.0,30.06,NE,44,0.0,3.0,51,0.00,,,0.68,,2013-04-06 02:53:00,
2013-04-05 23:03:00,45.0,30.0,30.06,NE,44,0.0,2.0,56,0.00,,,0.68,,2013-04-06 03:03:00,
2013-04-05 23:13:00,45.0,30.0,30.06,NE,44,0.0,2.0,56,0.00,,,0.68,,2013-04-06 03:13:00,
2013-04-05 23:23:00,43.0,29.0,30.06,NE,44,0.0,2.0,58,0.01,,,0.67,,2013-04-06 03:23:00,
2013-04-05 23:34:00,42.0,29.0,30.06,NE,44,0.0,2.0,60,0.01,,,0.67,,2013-04-06 03:34:00,
2013-04-05 23:43:00,42.0,29.0,30.06,NE,44,0.0,2.0,60,0.01,,,0.67,,2013-04-06 03:43:00,
2013-04-05 23:55:00,42.0,30.0,30.06,NE,44,1.0,2.0,63,0.01,,,0.67,,2013-04-06 03:55:00,